sensor_id;sensor_type;location;lat;lon;timestamp;temperature;humidity
12039;DHT22;6080;48.818;9.526;2023-03-01T04:02:25;0.00;99.90
12039;DHT22;6080;48.818;9.526;2023-03-01T04:04:51;0.00;99.90
12039;DHT22;6080;48.818;9.526;2023-03-01T04:07:17;0.10;99.90
12039;DHT22;6080;48.818;9.526;2023-03-01T04:09:43;0.10;99.90
12039;DHT22;6080;48.818;9.526;2023-03-01T04:12:10;0.10;99.90
12039;DHT22;6080;48.818;9.526;2023-03-01T04:14:36;0.10;99.90
12039;DHT22;6080;48.818;9.526;2023-03-01T04:17:02;0.10;99.90
12039;DHT22;6080;48.818;9.526;2023-03-01T04:19:31;0.10;99.90
12039;DHT22;6080;48.818;9.526;2023-03-01T04:22:02;0.10;99.90
12039;DHT22;6080;48.818;9.526;2023-03-01T04:24:37;0.10;99.90
12039;DHT22;6080;48.818;9.526;2023-03-01T04:27:03;0.10;99.90
12039;DHT22;6080;48.818;9.526;2023-03-01T04:29:29;0.20;99.90
12039;DHT22;6080;48.818;9.526;2023-03-01T04:31:55;0.20;99.90
12039;DHT22;6080;48.818;9.526;2023-03-01T04:34:20;0.20;99.90
12039;DHT22;6080;48.818;9.526;2023-03-01T04:36:46;0.20;99.90
12039;DHT22;6080;48.818;9.526;2023-03-01T04:39:12;0.20;99.90
12039;DHT22;6080;48.818;9.526;2023-03-01T04:41:38;0.20;99.90
12039;DHT22;6080;48.818;9.526;2023-03-01T04:44:07;0.20;99.90
12039;DHT22;6080;48.818;9.526;2023-03-01T04:46:35;0.30;99.90
12039;DHT22;6080;48.818;9.526;2023-03-01T04:49:04;0.30;99.90
12039;DHT22;6080;48.818;9.526;2023-03-01T04:51:31;0.30;99.90
12039;DHT22;6080;48.818;9.526;2023-03-01T04:53:58;0.30;99.90
12039;DHT22;6080;48.818;9.526;2023-03-01T04:56:25;0.30;99.90
12039;DHT22;6080;48.818;9.526;2023-03-01T04:58:53;0.30;99.90
12039;DHT22;6080;48.818;9.526;2023-03-01T05:01:20;0.30;99.90
12039;DHT22;6080;48.818;9.526;2023-03-01T05:03:48;0.30;99.90
12039;DHT22;6080;48.818;9.526;2023-03-01T05:06:16;0.40;99.90
12039;DHT22;6080;48.818;9.526;2023-03-01T05:08:42;0.40;99.90
12039;DHT22;6080;48.818;9.526;2023-03-01T05:11:09;0.50;99.90
12039;DHT22;6080;48.818;9.526;2023-03-01T05:13:36;0.40;99.90
12039;DHT22;6080;48.818;9.526;2023-03-01T05:16:03;0.30;99.90
12039;DHT22;6080;48.818;9.526;2023-03-01T05:18:33;0.40;99.90
12039;DHT22;6080;48.818;9.526;2023-03-01T05:21:10;0.40;99.90
12039;DHT22;6080;48.818;9.526;2023-03-01T05:23:37;0.40;99.90
12039;DHT22;6080;48.818;9.526;2023-03-01T05:26:04;0.40;99.90
12039;DHT22;6080;48.818;9.526;2023-03-01T05:28:32;0.50;99.90
12039;DHT22;6080;48.818;9.526;2023-03-01T05:30:58;0.50;99.90
12039;DHT22;6080;48.818;9.526;2023-03-01T05:33:25;0.50;99.90
12039;DHT22;6080;48.818;9.526;2023-03-01T05:35:52;0.50;99.90
12039;DHT22;6080;48.818;9.526;2023-03-01T05:38:20;0.60;99.90
12039;DHT22;6080;48.818;9.526;2023-03-01T05:40:47;0.60;99.90
12039;DHT22;6080;48.818;9.526;2023-03-01T05:43:14;0.60;99.90
12039;DHT22;6080;48.818;9.526;2023-03-01T05:45:41;0.70;99.90
12039;DHT22;6080;48.818;9.526;2023-03-01T05:48:08;0.70;99.90
12039;DHT22;6080;48.818;9.526;2023-03-01T05:50:36;0.80;99.90
12039;DHT22;6080;48.818;9.526;2023-03-01T05:53:15;0.80;99.90
12039;DHT22;6080;48.818;9.526;2023-03-01T05:55:41;0.70;99.90
12039;DHT22;6080;48.818;9.526;2023-03-01T05:58:11;0.70;99.90
12039;DHT22;6080;48.818;9.526;2023-03-01T06:00:37;0.70;99.90
12039;DHT22;6080;48.818;9.526;2023-03-01T06:03:03;0.70;99.90
12039;DHT22;6080;48.818;9.526;2023-03-01T06:05:29;0.60;99.90
12039;DHT22;6080;48.818;9.526;2023-03-01T06:07:54;0.60;99.90
12039;DHT22;6080;48.818;9.526;2023-03-01T06:10:21;0.60;99.90
12039;DHT22;6080;48.818;9.526;2023-03-01T06:12:47;0.60;99.90
12039;DHT22;6080;48.818;9.526;2023-03-01T06:15:14;0.50;99.90
12039;DHT22;6080;48.818;9.526;2023-03-01T06:17:42;0.50;99.90
12039;DHT22;6080;48.818;9.526;2023-03-01T06:22:37;0.50;99.90
12039;DHT22;6080;48.818;9.526;2023-03-01T06:25:04;0.50;99.90
12039;DHT22;6080;48.818;9.526;2023-03-01T06:27:30;0.40;99.90
12039;DHT22;6080;48.818;9.526;2023-03-01T06:29:56;0.40;99.90
12039;DHT22;6080;48.818;9.526;2023-03-01T06:32:22;0.40;99.90
12039;DHT22;6080;48.818;9.526;2023-03-01T06:34:48;0.40;99.90
12039;DHT22;6080;48.818;9.526;2023-03-01T06:37:14;0.30;99.90
12039;DHT22;6080;48.818;9.526;2023-03-01T06:39:40;0.30;99.90
12039;DHT22;6080;48.818;9.526;2023-03-01T06:42:08;0.30;99.90
12039;DHT22;6080;48.818;9.526;2023-03-01T06:44:33;0.30;99.90
12039;DHT22;6080;48.818;9.526;2023-03-01T06:46:59;0.30;99.90
12039;DHT22;6080;48.818;9.526;2023-03-01T06:49:25;0.30;99.90
12039;DHT22;6080;48.818;9.526;2023-03-01T06:51:51;0.30;99.90
12039;DHT22;6080;48.818;9.526;2023-03-01T06:54:16;0.40;99.90
12039;DHT22;6080;48.818;9.526;2023-03-01T06:56:46;0.50;99.90
12039;DHT22;6080;48.818;9.526;2023-03-01T06:59:11;0.50;99.90
12039;DHT22;6080;48.818;9.526;2023-03-01T07:01:37;0.60;99.90
12039;DHT22;6080;48.818;9.526;2023-03-01T07:04:04;0.70;99.90
12039;DHT22;6080;48.818;9.526;2023-03-01T07:06:30;0.70;99.90
12039;DHT22;6080;48.818;9.526;2023-03-01T07:08:55;0.80;99.90
12039;DHT22;6080;48.818;9.526;2023-03-01T07:11:21;0.90;99.90
12039;DHT22;6080;48.818;9.526;2023-03-01T07:13:48;1.00;99.90
12039;DHT22;6080;48.818;9.526;2023-03-01T07:16:13;1.10;99.90
12039;DHT22;6080;48.818;9.526;2023-03-01T07:18:40;1.30;99.90
12039;DHT22;6080;48.818;9.526;2023-03-01T07:21:08;1.50;99.90
12039;DHT22;6080;48.818;9.526;2023-03-01T07:23:35;1.80;99.90
12039;DHT22;6080;48.818;9.526;2023-03-01T07:26:01;2.00;99.90
12039;DHT22;6080;48.818;9.526;2023-03-01T07:28:27;2.20;99.90
12039;DHT22;6080;48.818;9.526;2023-03-01T07:30:53;2.40;99.90
12039;DHT22;6080;48.818;9.526;2023-03-01T07:33:19;2.50;99.90
12039;DHT22;6080;48.818;9.526;2023-03-01T07:35:45;2.80;99.90
12039;DHT22;6080;48.818;9.526;2023-03-01T07:38:10;3.00;99.90
12039;DHT22;6080;48.818;9.526;2023-03-01T07:40:36;3.20;99.90
12039;DHT22;6080;48.818;9.526;2023-03-01T07:43:02;3.20;99.90
12039;DHT22;6080;48.818;9.526;2023-03-01T07:45:28;3.30;99.90
12039;DHT22;6080;48.818;9.526;2023-03-01T07:47:55;3.40;99.90
12039;DHT22;6080;48.818;9.526;2023-03-01T07:50:22;3.50;99.90
12039;DHT22;6080;48.818;9.526;2023-03-01T07:52:49;3.50;99.90
12039;DHT22;6080;48.818;9.526;2023-03-01T07:55:16;3.50;99.90
12039;DHT22;6080;48.818;9.526;2023-03-01T07:57:42;3.60;99.90
12039;DHT22;6080;48.818;9.526;2023-03-01T08:00:10;3.90;99.90
12039;DHT22;6080;48.818;9.526;2023-03-01T08:02:37;3.80;99.90
12039;DHT22;6080;48.818;9.526;2023-03-01T08:05:03;3.60;99.90
12039;DHT22;6080;48.818;9.526;2023-03-01T08:07:29;3.60;99.90
12039;DHT22;6080;48.818;9.526;2023-03-01T08:09:54;3.50;99.90
12039;DHT22;6080;48.818;9.526;2023-03-01T08:12:20;3.80;99.90
12039;DHT22;6080;48.818;9.526;2023-03-01T08:14:46;3.70;99.90
12039;DHT22;6080;48.818;9.526;2023-03-01T08:17:14;3.90;99.90
12039;DHT22;6080;48.818;9.526;2023-03-01T08:19:39;3.90;99.90
12039;DHT22;6080;48.818;9.526;2023-03-01T08:22:05;4.10;99.90
12039;DHT22;6080;48.818;9.526;2023-03-01T08:24:31;4.10;99.90
12039;DHT22;6080;48.818;9.526;2023-03-01T08:26:57;4.10;99.90
12039;DHT22;6080;48.818;9.526;2023-03-01T08:29:23;4.30;99.90
12039;DHT22;6080;48.818;9.526;2023-03-01T08:31:50;4.30;99.90
12039;DHT22;6080;48.818;9.526;2023-03-01T08:34:17;4.20;99.90
12039;DHT22;6080;48.818;9.526;2023-03-01T08:36:45;4.50;99.90
12039;DHT22;6080;48.818;9.526;2023-03-01T08:39:14;4.80;99.90
12039;DHT22;6080;48.818;9.526;2023-03-01T08:41:40;4.60;99.90
12039;DHT22;6080;48.818;9.526;2023-03-01T08:44:07;4.40;99.90
12039;DHT22;6080;48.818;9.526;2023-03-01T08:46:38;4.60;99.90
12039;DHT22;6080;48.818;9.526;2023-03-01T08:49:12;4.70;99.90
12039;DHT22;6080;48.818;9.526;2023-03-01T08:51:39;4.90;99.90
12039;DHT22;6080;48.818;9.526;2023-03-01T08:54:16;5.10;99.90
12039;DHT22;6080;48.818;9.526;2023-03-01T08:56:44;5.00;99.90
12039;DHT22;6080;48.818;9.526;2023-03-01T08:59:14;5.10;99.90
12039;DHT22;6080;48.818;9.526;2023-03-01T09:01:41;5.20;99.90
12039;DHT22;6080;48.818;9.526;2023-03-01T09:04:09;5.40;99.90
12039;DHT22;6080;48.818;9.526;2023-03-01T09:06:35;5.60;99.90
12039;DHT22;6080;48.818;9.526;2023-03-01T09:09:03;5.90;99.90
12039;DHT22;6080;48.818;9.526;2023-03-01T09:11:29;6.10;99.90
12039;DHT22;6080;48.818;9.526;2023-03-01T09:13:55;6.40;99.90
12039;DHT22;6080;48.818;9.526;2023-03-01T09:16:22;6.40;99.90
12039;DHT22;6080;48.818;9.526;2023-03-01T09:18:53;6.90;99.90
12039;DHT22;6080;48.818;9.526;2023-03-01T09:21:21;7.00;99.90
12039;DHT22;6080;48.818;9.526;2023-03-01T09:23:48;7.00;99.90
12039;DHT22;6080;48.818;9.526;2023-03-01T09:26:21;7.10;99.90
12039;DHT22;6080;48.818;9.526;2023-03-01T09:28:49;6.70;99.90
12039;DHT22;6080;48.818;9.526;2023-03-01T09:31:16;6.70;99.90
12039;DHT22;6080;48.818;9.526;2023-03-01T09:33:45;7.00;99.90
12039;DHT22;6080;48.818;9.526;2023-03-01T09:36:13;7.00;99.90
12039;DHT22;6080;48.818;9.526;2023-03-01T09:38:39;7.20;99.90
12039;DHT22;6080;48.818;9.526;2023-03-01T09:46:22;9.00;99.60
12039;DHT22;6080;48.818;9.526;2023-03-01T09:48:55;9.30;98.30
12039;DHT22;6080;48.818;9.526;2023-03-01T09:51:35;9.30;96.20
12039;DHT22;6080;48.818;9.526;2023-03-01T09:54:02;8.90;96.40
12039;DHT22;6080;48.818;9.526;2023-03-01T09:56:33;8.80;96.30
12039;DHT22;6080;48.818;9.526;2023-03-01T10:01:35;8.90;95.30
12039;DHT22;6080;48.818;9.526;2023-03-01T10:04:32;8.60;95.70
12039;DHT22;6080;48.818;9.526;2023-03-01T10:07:32;8.70;95.60
12039;DHT22;6080;48.818;9.526;2023-03-01T10:10:08;9.00;95.10
12039;DHT22;6080;48.818;9.526;2023-03-01T10:12:41;8.80;95.30
12039;DHT22;6080;48.818;9.526;2023-03-01T10:15:15;9.00;94.90
12039;DHT22;6080;48.818;9.526;2023-03-01T10:17:51;9.50;94.30
12039;DHT22;6080;48.818;9.526;2023-03-01T10:20:23;10.00;93.00
12039;DHT22;6080;48.818;9.526;2023-03-01T10:22:50;10.00;92.40
12039;DHT22;6080;48.818;9.526;2023-03-01T10:25:47;10.00;92.10
12039;DHT22;6080;48.818;9.526;2023-03-01T10:28:37;9.70;92.70
12039;DHT22;6080;48.818;9.526;2023-03-01T10:31:05;9.90;92.20
12039;DHT22;6080;48.818;9.526;2023-03-01T10:33:38;10.40;91.20
12039;DHT22;6080;48.818;9.526;2023-03-01T10:36:05;10.20;90.90
12039;DHT22;6080;48.818;9.526;2023-03-01T10:38:50;10.10;91.70
12039;DHT22;6080;48.818;9.526;2023-03-01T10:41:20;10.20;91.90
12039;DHT22;6080;48.818;9.526;2023-03-01T10:43:55;10.10;91.50
12039;DHT22;6080;48.818;9.526;2023-03-01T10:46:35;10.40;91.10
12039;DHT22;6080;48.818;9.526;2023-03-01T10:49:17;10.20;90.30
12039;DHT22;6080;48.818;9.526;2023-03-01T10:51:45;9.90;90.50
12039;DHT22;6080;48.818;9.526;2023-03-01T10:54:32;10.70;90.50
12039;DHT22;6080;48.818;9.526;2023-03-01T10:57:01;11.00;88.60
12039;DHT22;6080;48.818;9.526;2023-03-01T10:59:35;11.10;89.60
12039;DHT22;6080;48.818;9.526;2023-03-01T11:02:26;11.40;86.30
12039;DHT22;6080;48.818;9.526;2023-03-01T11:07:54;11.00;87.60
12039;DHT22;6080;48.818;9.526;2023-03-01T11:10:24;11.40;85.80
12039;DHT22;6080;48.818;9.526;2023-03-01T11:12:53;11.70;84.80
12039;DHT22;6080;48.818;9.526;2023-03-01T11:15:22;12.00;83.50
12039;DHT22;6080;48.818;9.526;2023-03-01T11:17:48;12.60;81.50
12039;DHT22;6080;48.818;9.526;2023-03-01T11:23:00;12.40;79.30
12039;DHT22;6080;48.818;9.526;2023-03-01T11:25:32;12.30;80.50
12039;DHT22;6080;48.818;9.526;2023-03-01T11:27:59;12.20;79.90
12039;DHT22;6080;48.818;9.526;2023-03-01T11:30:28;13.10;77.90
12039;DHT22;6080;48.818;9.526;2023-03-01T11:38:47;13.20;74.70
12039;DHT22;6080;48.818;9.526;2023-03-01T11:41:26;13.10;75.30
12039;DHT22;6080;48.818;9.526;2023-03-01T11:44:03;12.90;76.00
12039;DHT22;6080;48.818;9.526;2023-03-01T11:51:58;13.80;72.40
12039;DHT22;6080;48.818;9.526;2023-03-01T12:00:10;13.00;75.30
12039;DHT22;6080;48.818;9.526;2023-03-01T12:05:50;13.90;73.60
12039;DHT22;6080;48.818;9.526;2023-03-01T12:17:02;13.00;73.30
12039;DHT22;6080;48.818;9.526;2023-03-01T12:19:58;12.90;73.60
12039;DHT22;6080;48.818;9.526;2023-03-01T12:22:32;13.40;73.50
12039;DHT22;6080;48.818;9.526;2023-03-01T12:25:31;14.20;71.00
12039;DHT22;6080;48.818;9.526;2023-03-01T12:28:54;14.30;70.60
12039;DHT22;6080;48.818;9.526;2023-03-01T12:34:26;12.80;72.90
12039;DHT22;6080;48.818;9.526;2023-03-01T12:37:24;13.50;72.40
12039;DHT22;6080;48.818;9.526;2023-03-01T12:40:21;13.60;71.30
12039;DHT22;6080;48.818;9.526;2023-03-01T12:45:53;14.10;70.20
12039;DHT22;6080;48.818;9.526;2023-03-01T12:51:31;15.20;67.60
12039;DHT22;6080;48.818;9.526;2023-03-01T12:54:00;15.50;65.10
12039;DHT22;6080;48.818;9.526;2023-03-01T12:56:29;15.10;65.90
12039;DHT22;6080;48.818;9.526;2023-03-01T12:59:04;14.80;66.70
12039;DHT22;6080;48.818;9.526;2023-03-01T13:01:55;15.30;66.40
12039;DHT22;6080;48.818;9.526;2023-03-01T13:15:36;16.60;61.00
12039;DHT22;6080;48.818;9.526;2023-03-01T13:18:04;16.90;59.80
12039;DHT22;6080;48.818;9.526;2023-03-01T13:20:56;17.30;59.00
12039;DHT22;6080;48.818;9.526;2023-03-01T13:26:16;16.00;61.30
12039;DHT22;6080;48.818;9.526;2023-03-01T13:34:00;17.60;57.70
12039;DHT22;6080;48.818;9.526;2023-03-01T13:38:57;17.90;56.10
12039;DHT22;6080;48.818;9.526;2023-03-01T13:47:14;15.30;60.40
12039;DHT22;6080;48.818;9.526;2023-03-01T13:49:53;15.50;60.60
12039;DHT22;6080;48.818;9.526;2023-03-01T13:52:39;15.80;59.60
12039;DHT22;6080;48.818;9.526;2023-03-01T13:55:19;15.60;59.60
12039;DHT22;6080;48.818;9.526;2023-03-01T13:57:49;14.90;61.40
12039;DHT22;6080;48.818;9.526;2023-03-01T14:00:37;14.80;63.00
12039;DHT22;6080;48.818;9.526;2023-03-01T14:03:15;14.50;62.50
12039;DHT22;6080;48.818;9.526;2023-03-01T14:08:26;14.10;64.40
12039;DHT22;6080;48.818;9.526;2023-03-01T14:16:54;12.00;70.40
12039;DHT22;6080;48.818;9.526;2023-03-01T14:19:26;12.30;71.00
12039;DHT22;6080;48.818;9.526;2023-03-01T14:24:31;11.60;71.50
12039;DHT22;6080;48.818;9.526;2023-03-01T14:27:00;11.30;72.30
12039;DHT22;6080;48.818;9.526;2023-03-01T14:29:33;11.00;73.80
12039;DHT22;6080;48.818;9.526;2023-03-01T14:32:31;10.90;74.80
12039;DHT22;6080;48.818;9.526;2023-03-01T14:34:58;11.10;73.50
12039;DHT22;6080;48.818;9.526;2023-03-01T14:37:34;10.80;74.80
12039;DHT22;6080;48.818;9.526;2023-03-01T14:40:03;10.80;74.80
12039;DHT22;6080;48.818;9.526;2023-03-01T14:42:34;10.70;74.80
12039;DHT22;6080;48.818;9.526;2023-03-01T14:45:01;10.70;75.40
12039;DHT22;6080;48.818;9.526;2023-03-01T14:47:35;10.20;76.30
12039;DHT22;6080;48.818;9.526;2023-03-01T14:50:09;9.90;76.60
12039;DHT22;6080;48.818;9.526;2023-03-01T14:52:42;10.30;77.10
12039;DHT22;6080;48.818;9.526;2023-03-01T14:55:20;10.80;76.00
12039;DHT22;6080;48.818;9.526;2023-03-01T14:57:49;11.10;75.40
12039;DHT22;6080;48.818;9.526;2023-03-01T15:00:24;11.40;74.30
12039;DHT22;6080;48.818;9.526;2023-03-01T15:02:52;11.10;75.10
12039;DHT22;6080;48.818;9.526;2023-03-01T15:05:27;10.70;75.70
12039;DHT22;6080;48.818;9.526;2023-03-01T15:07:55;10.40;76.00
12039;DHT22;6080;48.818;9.526;2023-03-01T15:10:27;10.50;76.40
12039;DHT22;6080;48.818;9.526;2023-03-01T15:12:54;10.30;76.50
12039;DHT22;6080;48.818;9.526;2023-03-01T15:17:55;10.10;77.50
12039;DHT22;6080;48.818;9.526;2023-03-01T15:20:24;9.80;78.00
12039;DHT22;6080;48.818;9.526;2023-03-01T15:22:53;9.50;78.80
12039;DHT22;6080;48.818;9.526;2023-03-01T15:25:23;9.30;79.40
12039;DHT22;6080;48.818;9.526;2023-03-01T15:27:51;9.20;80.20
12039;DHT22;6080;48.818;9.526;2023-03-01T15:30:44;9.20;80.50
12039;DHT22;6080;48.818;9.526;2023-03-01T15:35:50;9.40;81.30
12039;DHT22;6080;48.818;9.526;2023-03-01T15:38:49;9.40;80.50
12039;DHT22;6080;48.818;9.526;2023-03-01T15:41:26;9.30;80.80
12039;DHT22;6080;48.818;9.526;2023-03-01T15:43:52;9.20;81.40
12039;DHT22;6080;48.818;9.526;2023-03-01T15:46:28;9.20;81.20
12039;DHT22;6080;48.818;9.526;2023-03-01T15:49:04;9.10;81.40
12039;DHT22;6080;48.818;9.526;2023-03-01T15:51:35;8.90;82.60
12039;DHT22;6080;48.818;9.526;2023-03-01T15:54:11;8.90;82.50
12039;DHT22;6080;48.818;9.526;2023-03-01T15:56:41;8.90;82.30
12039;DHT22;6080;48.818;9.526;2023-03-01T15:59:10;8.90;82.60
12039;DHT22;6080;48.818;9.526;2023-03-01T16:01:39;8.80;82.70
12039;DHT22;6080;48.818;9.526;2023-03-01T16:04:05;8.80;84.30
12039;DHT22;6080;48.818;9.526;2023-03-01T16:06:31;8.90;83.40
12039;DHT22;6080;48.818;9.526;2023-03-01T16:08:57;8.80;82.60
12039;DHT22;6080;48.818;9.526;2023-03-01T16:11:23;8.70;83.40
12039;DHT22;6080;48.818;9.526;2023-03-01T16:13:49;8.60;82.70
12039;DHT22;6080;48.818;9.526;2023-03-01T16:16:16;8.50;83.30
12039;DHT22;6080;48.818;9.526;2023-03-01T16:18:43;8.40;83.60
12039;DHT22;6080;48.818;9.526;2023-03-01T16:21:14;8.30;84.00
12039;DHT22;6080;48.818;9.526;2023-03-01T16:23:42;8.40;84.00
12039;DHT22;6080;48.818;9.526;2023-03-01T16:26:09;8.60;84.00
12039;DHT22;6080;48.818;9.526;2023-03-01T16:28:35;8.70;83.20
12039;DHT22;6080;48.818;9.526;2023-03-01T16:31:01;8.80;82.60
12039;DHT22;6080;48.818;9.526;2023-03-01T16:33:27;8.90;82.80
12039;DHT22;6080;48.818;9.526;2023-03-01T16:35:53;8.90;82.10
12039;DHT22;6080;48.818;9.526;2023-03-01T16:38:18;8.80;82.40
12039;DHT22;6080;48.818;9.526;2023-03-01T16:40:50;8.60;83.50
12039;DHT22;6080;48.818;9.526;2023-03-01T16:43:16;8.30;83.90
12039;DHT22;6080;48.818;9.526;2023-03-01T16:45:41;8.00;84.70
12039;DHT22;6080;48.818;9.526;2023-03-01T16:48:10;7.70;85.80
12039;DHT22;6080;48.818;9.526;2023-03-01T16:50:37;7.60;86.70
12039;DHT22;6080;48.818;9.526;2023-03-01T16:53:03;7.40;87.40
12039;DHT22;6080;48.818;9.526;2023-03-01T16:55:29;7.30;87.80
12039;DHT22;6080;48.818;9.526;2023-03-01T16:57:54;7.10;88.40
12039;DHT22;6080;48.818;9.526;2023-03-01T17:00:20;7.00;89.70
12039;DHT22;6080;48.818;9.526;2023-03-01T17:02:47;7.00;90.50
12039;DHT22;6080;48.818;9.526;2023-03-01T17:05:14;6.90;90.20
12039;DHT22;6080;48.818;9.526;2023-03-01T17:07:40;6.80;90.60
12039;DHT22;6080;48.818;9.526;2023-03-01T17:10:08;6.80;91.00
12039;DHT22;6080;48.818;9.526;2023-03-01T17:12:35;6.60;91.10
12039;DHT22;6080;48.818;9.526;2023-03-01T17:15:01;6.50;91.70
12039;DHT22;6080;48.818;9.526;2023-03-01T17:17:27;6.40;92.00
12039;DHT22;6080;48.818;9.526;2023-03-01T17:19:53;6.20;92.60
12039;DHT22;6080;48.818;9.526;2023-03-01T17:22:21;6.20;92.50
12039;DHT22;6080;48.818;9.526;2023-03-01T17:24:47;6.10;92.60
12039;DHT22;6080;48.818;9.526;2023-03-01T17:27:13;6.00;93.00
12039;DHT22;6080;48.818;9.526;2023-03-01T17:29:40;5.90;93.50
12039;DHT22;6080;48.818;9.526;2023-03-01T17:32:08;5.80;93.90
12039;DHT22;6080;48.818;9.526;2023-03-01T17:34:34;5.70;94.30
12039;DHT22;6080;48.818;9.526;2023-03-01T17:37:00;5.60;94.50
12039;DHT22;6080;48.818;9.526;2023-03-01T17:39:26;5.70;95.20
12039;DHT22;6080;48.818;9.526;2023-03-01T17:41:56;5.50;95.40
12039;DHT22;6080;48.818;9.526;2023-03-01T17:44:22;5.40;96.50
12039;DHT22;6080;48.818;9.526;2023-03-01T17:46:48;5.30;97.10
12039;DHT22;6080;48.818;9.526;2023-03-01T17:49:14;5.20;97.80
12039;DHT22;6080;48.818;9.526;2023-03-01T17:51:44;5.10;99.60
12039;DHT22;6080;48.818;9.526;2023-03-01T17:54:10;5.10;99.90
12039;DHT22;6080;48.818;9.526;2023-03-01T17:56:36;5.00;99.90
12039;DHT22;6080;48.818;9.526;2023-03-01T17:59:04;4.90;99.90
12039;DHT22;6080;48.818;9.526;2023-03-01T18:01:31;4.80;99.90
12039;DHT22;6080;48.818;9.526;2023-03-01T18:03:58;4.70;99.90
12039;DHT22;6080;48.818;9.526;2023-03-01T18:06:25;4.60;99.90
12039;DHT22;6080;48.818;9.526;2023-03-01T18:08:52;4.40;99.90
12039;DHT22;6080;48.818;9.526;2023-03-01T18:11:21;4.40;99.90
12039;DHT22;6080;48.818;9.526;2023-03-01T18:13:47;4.30;99.90
12039;DHT22;6080;48.818;9.526;2023-03-01T18:16:18;4.20;99.90
12039;DHT22;6080;48.818;9.526;2023-03-01T18:18:44;4.10;99.90
12039;DHT22;6080;48.818;9.526;2023-03-01T18:21:10;4.10;99.90
12039;DHT22;6080;48.818;9.526;2023-03-01T18:23:36;4.10;99.90
12039;DHT22;6080;48.818;9.526;2023-03-01T18:26:08;4.00;99.90
12039;DHT22;6080;48.818;9.526;2023-03-01T18:28:35;4.10;99.90
12039;DHT22;6080;48.818;9.526;2023-03-01T18:31:07;4.10;99.90
12039;DHT22;6080;48.818;9.526;2023-03-01T18:33:36;3.90;99.90
12039;DHT22;6080;48.818;9.526;2023-03-01T18:36:02;3.80;99.90
12039;DHT22;6080;48.818;9.526;2023-03-01T18:38:28;3.70;99.90
12039;DHT22;6080;48.818;9.526;2023-03-01T18:40:55;3.70;99.90
12039;DHT22;6080;48.818;9.526;2023-03-01T18:43:22;3.60;99.90
12039;DHT22;6080;48.818;9.526;2023-03-01T18:45:54;3.50;99.90
12039;DHT22;6080;48.818;9.526;2023-03-01T18:48:20;3.50;99.90
12039;DHT22;6080;48.818;9.526;2023-03-01T18:50:46;3.50;99.90
12039;DHT22;6080;48.818;9.526;2023-03-01T18:53:11;3.60;99.90
12039;DHT22;6080;48.818;9.526;2023-03-01T18:55:38;3.60;99.90
12039;DHT22;6080;48.818;9.526;2023-03-01T18:58:04;3.50;99.90
12039;DHT22;6080;48.818;9.526;2023-03-01T19:00:32;3.40;99.90
12039;DHT22;6080;48.818;9.526;2023-03-01T19:02:58;3.40;99.90
12039;DHT22;6080;48.818;9.526;2023-03-01T19:05:26;3.30;99.90
12039;DHT22;6080;48.818;9.526;2023-03-01T19:07:52;3.10;99.90
12039;DHT22;6080;48.818;9.526;2023-03-01T19:10:18;3.10;99.90
12039;DHT22;6080;48.818;9.526;2023-03-01T19:12:45;2.90;99.90
12039;DHT22;6080;48.818;9.526;2023-03-01T19:15:11;2.90;99.90
12039;DHT22;6080;48.818;9.526;2023-03-01T19:17:37;2.80;99.90
12039;DHT22;6080;48.818;9.526;2023-03-01T19:20:03;2.70;99.90
12039;DHT22;6080;48.818;9.526;2023-03-01T19:22:29;2.80;99.90
12039;DHT22;6080;48.818;9.526;2023-03-01T19:24:55;2.70;99.90
12039;DHT22;6080;48.818;9.526;2023-03-01T19:27:21;2.60;99.90
12039;DHT22;6080;48.818;9.526;2023-03-01T19:29:47;2.50;99.90
12039;DHT22;6080;48.818;9.526;2023-03-01T19:32:12;2.60;99.90
12039;DHT22;6080;48.818;9.526;2023-03-01T19:34:39;2.50;99.90
12039;DHT22;6080;48.818;9.526;2023-03-01T19:37:06;2.40;99.90
12039;DHT22;6080;48.818;9.526;2023-03-01T19:39:34;2.40;99.90
12039;DHT22;6080;48.818;9.526;2023-03-01T19:42:00;2.40;99.90
12039;DHT22;6080;48.818;9.526;2023-03-01T19:44:26;2.40;99.90
12039;DHT22;6080;48.818;9.526;2023-03-01T19:46:54;2.50;99.90
12039;DHT22;6080;48.818;9.526;2023-03-01T19:49:20;2.60;99.90
12039;DHT22;6080;48.818;9.526;2023-03-01T19:51:45;2.60;99.90
12039;DHT22;6080;48.818;9.526;2023-03-01T19:54:11;2.60;99.90
12039;DHT22;6080;48.818;9.526;2023-03-01T19:56:39;2.70;99.90
12039;DHT22;6080;48.818;9.526;2023-03-01T19:59:05;2.70;99.90
12039;DHT22;6080;48.818;9.526;2023-03-01T20:01:32;2.60;99.90
12039;DHT22;6080;48.818;9.526;2023-03-01T20:04:02;2.50;99.90
12039;DHT22;6080;48.818;9.526;2023-03-01T20:06:28;2.50;99.90
12039;DHT22;6080;48.818;9.526;2023-03-01T20:08:54;2.50;99.90
12039;DHT22;6080;48.818;9.526;2023-03-01T20:11:20;2.40;99.90
12039;DHT22;6080;48.818;9.526;2023-03-01T20:13:46;2.30;99.90
12039;DHT22;6080;48.818;9.526;2023-03-01T20:16:17;2.30;99.90
12039;DHT22;6080;48.818;9.526;2023-03-01T20:18:43;2.20;99.90
12039;DHT22;6080;48.818;9.526;2023-03-01T20:21:09;2.10;99.90
12039;DHT22;6080;48.818;9.526;2023-03-01T20:23:35;2.10;99.90
12039;DHT22;6080;48.818;9.526;2023-03-01T20:26:09;2.10;99.90
12039;DHT22;6080;48.818;9.526;2023-03-01T20:28:39;2.10;99.90
12039;DHT22;6080;48.818;9.526;2023-03-01T20:31:12;2.10;99.90
12039;DHT22;6080;48.818;9.526;2023-03-01T20:33:38;2.10;99.90
12039;DHT22;6080;48.818;9.526;2023-03-01T20:36:05;2.10;99.90
12039;DHT22;6080;48.818;9.526;2023-03-01T20:38:31;2.00;99.90
12039;DHT22;6080;48.818;9.526;2023-03-01T20:41:05;2.00;99.90
12039;DHT22;6080;48.818;9.526;2023-03-01T20:43:32;2.00;99.90
12039;DHT22;6080;48.818;9.526;2023-03-01T20:46:02;2.10;99.90
12039;DHT22;6080;48.818;9.526;2023-03-01T20:48:28;2.10;99.90
12039;DHT22;6080;48.818;9.526;2023-03-01T20:50:54;2.00;99.90
12039;DHT22;6080;48.818;9.526;2023-03-01T20:53:21;2.00;99.90
12039;DHT22;6080;48.818;9.526;2023-03-01T20:55:47;1.90;99.90
12039;DHT22;6080;48.818;9.526;2023-03-01T20:58:14;1.90;99.90
12039;DHT22;6080;48.818;9.526;2023-03-01T21:00:40;1.90;99.90
12039;DHT22;6080;48.818;9.526;2023-03-01T21:03:05;2.00;99.90
12039;DHT22;6080;48.818;9.526;2023-03-01T21:05:31;2.00;99.90
12039;DHT22;6080;48.818;9.526;2023-03-01T21:07:57;2.00;99.90
12039;DHT22;6080;48.818;9.526;2023-03-01T21:10:25;2.10;99.90
12039;DHT22;6080;48.818;9.526;2023-03-01T21:12:51;2.10;99.90
12039;DHT22;6080;48.818;9.526;2023-03-01T21:15:17;2.00;99.90
12039;DHT22;6080;48.818;9.526;2023-03-01T21:17:42;2.00;99.90
12039;DHT22;6080;48.818;9.526;2023-03-01T21:20:09;2.00;99.90
12039;DHT22;6080;48.818;9.526;2023-03-01T21:22:35;2.10;99.90
12039;DHT22;6080;48.818;9.526;2023-03-01T21:25:01;2.00;99.90
12039;DHT22;6080;48.818;9.526;2023-03-01T21:27:27;1.90;99.90
12039;DHT22;6080;48.818;9.526;2023-03-01T21:29:53;1.90;99.90
12039;DHT22;6080;48.818;9.526;2023-03-01T21:32:19;1.80;99.90
12039;DHT22;6080;48.818;9.526;2023-03-01T21:34:44;1.70;99.90
12039;DHT22;6080;48.818;9.526;2023-03-01T21:37:10;1.70;99.90
12039;DHT22;6080;48.818;9.526;2023-03-01T21:39:37;1.70;99.90
12039;DHT22;6080;48.818;9.526;2023-03-01T21:42:05;1.80;99.90
12039;DHT22;6080;48.818;9.526;2023-03-01T21:44:31;1.90;99.90
12039;DHT22;6080;48.818;9.526;2023-03-01T21:47:00;1.80;99.90
12039;DHT22;6080;48.818;9.526;2023-03-01T21:49:29;1.90;99.90
12039;DHT22;6080;48.818;9.526;2023-03-01T21:51:55;1.90;99.90